Time;durP1;ratioP1;P1;durP2;ratioP2;P2;SDS_P1;SDS_P2;PMS_P1;PMS_P2;Temp;Humidity;BMP_temperature;BMP_pressure;BME280_temperature;BME280_humidity;BME280_pressure;Samples;Min_cycle;Max_cycle;Signal;HPM_P1;HPM_P2
2022/08/01 00:01:05;;;;;;;2.60;1.67;;;21.10;99.90;;;;;;4997349;28;20292;-82
2022/08/01 00:03:31;;;;;;;2.50;1.87;;;21.10;99.90;;;;;;4998063;28;20174;-82
2022/08/01 00:05:56;;;;;;;2.30;1.80;;;21.00;99.80;;;;;;4997068;28;20256;-82
2022/08/01 00:08:22;;;;;;;1.97;1.80;;;21.00;99.90;;;;;;4997318;28;20185;-82
2022/08/01 00:10:48;;;;;;;2.20;1.80;;;21.00;99.90;;;;;;4997140;28;20193;-82
2022/08/01 00:13:13;;;;;;;4.40;2.13;;;20.90;99.90;;;;;;4998653;28;20185;-82
2022/08/01 00:15:39;;;;;;;2.07;1.60;;;20.80;99.90;;;;;;4998877;28;20192;-82
2022/08/01 00:18:05;;;;;;;4.10;1.97;;;20.80;99.90;;;;;;4998346;28;20193;-82
2022/08/01 00:20:30;;;;;;;3.03;1.70;;;20.80;99.90;;;;;;4997442;28;20215;-82
2022/08/01 00:22:56;;;;;;;2.23;2.07;;;20.70;99.90;;;;;;4998668;28;20183;-82
2022/08/01 00:25:22;;;;;;;1.90;1.77;;;20.60;99.90;;;;;;4998770;28;20674;-82
2022/08/01 00:27:48;;;;;;;4.10;1.77;;;20.60;99.90;;;;;;5002931;28;20191;-82
2022/08/01 00:30:14;;;;;;;2.00;1.73;;;;;;;;;;5001717;28;20190;-82
2022/08/01 00:32:39;;;;;;;5.23;2.00;;;20.40;99.90;;;;;;4999659;28;20178;-82
2022/08/01 00:35:06;;;;;;;2.10;1.90;;;20.40;99.90;;;;;;5000261;28;20273;-80
2022/08/01 00:37:31;;;;;;;2.53;1.90;;;20.30;99.90;;;;;;5002145;28;20221;-82
2022/08/01 00:39:57;;;;;;;2.90;2.10;;;20.20;99.90;;;;;;4998011;28;20223;-82
2022/08/01 00:42:23;;;;;;;2.37;1.67;;;20.20;99.90;;;;;;4999035;28;20185;-81
2022/08/01 00:44:48;;;;;;;2.00;1.80;;;20.10;99.90;;;;;;4997665;28;20215;-82
2022/08/01 00:47:14;;;;;;;3.07;1.90;;;20.10;99.90;;;;;;4996271;28;20212;-82
2022/08/01 00:49:40;;;;;;;1.97;1.77;;;;;;;;;;4997599;28;20634;-81
2022/08/01 00:52:07;;;;;;;1.70;1.60;;;20.10;99.90;;;;;;4996216;28;20192;-82
2022/08/01 00:54:33;;;;;;;2.73;2.10;;;20.00;99.90;;;;;;4997149;28;20251;-81
2022/08/01 00:56:59;;;;;;;4.43;1.67;;;20.00;99.90;;;;;;4996992;28;20193;-81
2022/08/01 00:59:26;;;;;;;2.63;1.97;;;20.00;99.90;;;;;;4997306;28;20185;-81
2022/08/01 01:01:51;;;;;;;2.37;1.97;;;19.90;99.90;;;;;;4995980;28;20245;-82
2022/08/01 01:04:18;;;;;;;4.17;2.20;;;;;;;;;;4997940;28;20231;-81
2022/08/01 01:07:01;;;;;;;3.13;2.00;;;19.80;99.90;;;;;;4997342;28;20206;-82
2022/08/01 01:09:50;;;;;;;4.90;1.97;;;19.80;99.90;;;;;;4996340;28;20178;-82
2022/08/01 01:12:45;;;;;;;6.60;1.80;;;19.70;99.90;;;;;;4997492;28;20172;-82
2022/08/01 01:15:15;;;;;;;3.00;1.93;;;19.60;99.90;;;;;;4997531;28;20153;-82
2022/08/01 01:18:01;;;;;;;4.70;2.03;;;19.60;99.90;;;;;;4996166;28;20223;-82
2022/08/01 01:20:36;;;;;;;4.53;2.00;;;19.60;99.90;;;;;;4996504;28;20277;-81
2022/08/01 01:23:20;;;;;;;5.13;2.07;;;19.60;99.90;;;;;;4996005;28;20187;-82
2022/08/01 01:26:09;;;;;;;3.83;1.97;;;19.50;99.90;;;;;;4997686;28;20163;-81
2022/08/01 01:29:12;;;;;;;2.57;1.60;;;19.50;99.90;;;;;;4996527;28;20654;-82
2022/08/01 01:31:52;;;;;;;3.13;1.70;;;19.50;99.90;;;;;;4996678;28;20216;-82
2022/08/01 01:34:21;;;;;;;2.50;1.97;;;19.50;99.90;;;;;;4997711;28;20182;-82
2022/08/01 01:36:49;;;;;;;2.37;2.17;;;19.40;99.90;;;;;;4998567;28;20227;-82
2022/08/01 01:39:16;;;;;;;2.70;2.10;;;19.40;99.90;;;;;;4997238;28;20553;-82
2022/08/01 01:41:45;;;;;;;4.30;1.97;;;19.40;99.90;;;;;;4997782;28;20284;-82
2022/08/01 01:44:11;;;;;;;3.60;1.80;;;19.50;99.90;;;;;;4996684;28;20184;-82
2022/08/01 01:46:38;;;;;;;3.83;1.83;;;19.40;99.90;;;;;;4997078;28;20226;-82
2022/08/01 01:49:09;;;;;;;2.83;1.63;;;19.40;99.90;;;;;;4995839;28;20261;-82
2022/08/01 01:51:37;;;;;;;3.93;2.03;;;19.40;99.90;;;;;;4996682;28;20187;-82
2022/08/01 01:54:04;;;;;;;2.47;1.87;;;19.40;99.90;;;;;;4996376;28;20216;-82
2022/08/01 01:56:30;;;;;;;4.87;1.90;;;19.40;99.90;;;;;;4998645;28;20223;-82
2022/08/01 01:59:00;;;;;;;4.07;1.90;;;19.40;99.90;;;;;;5003226;28;20180;-82
2022/08/01 02:01:29;;;;;;;2.40;1.93;;;19.40;99.90;;;;;;5008167;28;20226;-82
2022/08/01 02:03:56;;;;;;;1.67;1.57;;;19.40;99.90;;;;;;5001249;28;20239;-82
2022/08/01 02:06:25;;;;;;;4.67;2.00;;;19.30;99.90;;;;;;5000729;28;20206;-82
2022/08/01 02:08:53;;;;;;;2.07;1.77;;;19.20;99.90;;;;;;5007127;28;20226;-81
2022/08/01 02:11:21;;;;;;;4.60;1.70;;;19.20;99.90;;;;;;4998292;28;20318;-82
2022/08/01 02:13:59;;;;;;;3.00;1.70;;;19.20;99.90;;;;;;5000721;28;20760;-82
2022/08/01 02:16:31;;;;;;;3.47;2.00;;;19.10;99.90;;;;;;4999888;28;20246;-81
2022/08/01 02:18:57;;;;;;;2.33;1.90;;;19.10;99.90;;;;;;4998946;28;20212;-81
2022/08/01 02:21:55;;;;;;;4.03;2.33;;;19.10;99.90;;;;;;4999252;28;20207;-82
2022/08/01 02:24:34;;;;;;;1.77;1.57;;;19.10;99.90;;;;;;5001808;28;20212;-82
2022/08/01 02:27:03;;;;;;;4.67;2.10;;;19.10;99.90;;;;;;4999142;28;20614;-82
2022/08/01 02:29:37;;;;;;;2.03;1.83;;;19.10;99.90;;;;;;4999835;28;20175;-82
2022/08/01 02:32:06;;;;;;;3.40;1.90;;;19.10;99.90;;;;;;5000404;28;20235;-81
2022/08/01 02:34:35;;;;;;;3.20;1.80;;;19.10;99.90;;;;;;5000323;28;20222;-81
2022/08/01 02:37:02;;;;;;;4.17;2.00;;;19.10;99.90;;;;;;4999365;28;20211;-81
2022/08/01 02:39:31;;;;;;;4.37;2.30;;;19.10;99.90;;;;;;4998009;28;20240;-81
2022/08/01 02:42:03;;;;;;;2.13;1.90;;;19.10;99.90;;;;;;4999686;28;20169;-82
2022/08/01 02:44:32;;;;;;;4.07;1.90;;;18.90;99.90;;;;;;4998419;28;20165;-82
2022/08/01 02:47:02;;;;;;;6.13;2.30;;;18.90;99.90;;;;;;4999635;28;20196;-82
2022/08/01 02:49:35;;;;;;;2.37;2.17;;;18.90;99.90;;;;;;4997809;28;20180;-82
2022/08/01 02:52:06;;;;;;;2.70;1.87;;;18.70;99.90;;;;;;4997765;28;20707;-82
2022/08/01 02:54:33;;;;;;;3.00;2.10;;;18.70;99.90;;;;;;4998115;28;20588;-81
2022/08/01 02:57:02;;;;;;;4.03;2.03;;;18.60;99.90;;;;;;4999631;28;20592;-81
2022/08/01 02:59:30;;;;;;;1.90;1.80;;;18.60;99.90;;;;;;4997761;28;20200;-82
2022/08/01 03:01:57;;;;;;;2.83;2.10;;;18.50;99.90;;;;;;4998425;28;20666;-82
2022/08/01 03:04:25;;;;;;;3.87;1.87;;;18.40;99.90;;;;;;4998116;28;20181;-81
2022/08/01 03:06:54;;;;;;;3.93;2.20;;;18.40;99.90;;;;;;4998235;28;20203;-82
2022/08/01 03:09:20;;;;;;;2.80;2.37;;;18.30;99.90;;;;;;4996963;28;20271;-82
2022/08/01 03:11:48;;;;;;;2.70;2.10;;;18.20;99.90;;;;;;4998603;28;20184;-81
2022/08/01 03:14:15;;;;;;;2.33;2.10;;;18.30;99.90;;;;;;4999368;28;20177;-81
2022/08/01 03:16:44;;;;;;;3.07;2.20;;;18.20;99.90;;;;;;4998357;28;20242;-82
2022/08/01 03:19:12;;;;;;;2.73;2.10;;;18.20;99.90;;;;;;5000383;28;20180;-82
2022/08/01 03:21:40;;;;;;;5.23;2.20;;;18.10;99.90;;;;;;4998785;28;20209;-82
2022/08/01 03:24:07;;;;;;;8.07;2.70;;;18.10;99.90;;;;;;4998656;28;20284;-82
2022/08/01 03:26:36;;;;;;;4.57;2.47;;;17.90;99.90;;;;;;5000766;28;20206;-82
2022/08/01 03:29:06;;;;;;;2.03;1.83;;;18.00;99.90;;;;;;5002706;28;20179;-82
2022/08/01 03:31:35;;;;;;;3.03;2.23;;;17.90;99.90;;;;;;4999851;28;20180;-82
2022/08/01 03:34:01;;;;;;;3.00;2.37;;;17.90;99.90;;;;;;5006858;28;20244;-81
2022/08/01 03:36:29;;;;;;;4.37;2.37;;;17.70;99.90;;;;;;5005807;28;20205;-81
2022/08/01 03:39:02;;;;;;;2.77;2.23;;;17.70;99.90;;;;;;5001358;28;20183;-82
2022/08/01 03:41:33;;;;;;;4.17;2.47;;;17.70;99.90;;;;;;5004035;28;20207;-81
2022/08/01 03:44:07;;;;;;;4.67;2.30;;;17.60;99.90;;;;;;4999125;28;20183;-82
2022/08/01 03:46:38;;;;;;;3.20;2.40;;;17.50;99.90;;;;;;4998972;28;20207;-81
2022/08/01 03:49:10;;;;;;;5.53;2.60;;;17.50;99.90;;;;;;4996902;28;20183;-82
2022/08/01 03:51:37;;;;;;;4.87;2.50;;;17.40;99.90;;;;;;4998657;28;20534;-81
2022/08/01 03:54:04;;;;;;;4.47;2.33;;;17.40;99.90;;;;;;4996984;28;20186;-82
2022/08/01 03:56:31;;;;;;;4.40;2.57;;;17.40;99.90;;;;;;4998588;28;20246;-82
2022/08/01 03:58:59;;;;;;;3.23;2.60;;;17.30;99.90;;;;;;4996692;28;20188;-82
2022/08/01 04:01:26;;;;;;;4.70;2.40;;;17.40;99.90;;;;;;4998360;28;20197;-82
2022/08/01 04:03:52;;;;;;;2.90;2.30;;;17.40;99.90;;;;;;4996060;28;20179;-81
2022/08/01 04:06:18;;;;;;;2.50;2.30;;;17.40;99.90;;;;;;4997231;28;20204;-82
2022/08/01 04:08:55;;;;;;;2.80;2.30;;;17.40;99.90;;;;;;4997009;28;20522;-82
2022/08/01 04:11:25;;;;;;;2.90;2.37;;;17.50;99.90;;;;;;4998428;28;20179;-81
2022/08/01 04:13:53;;;;;;;3.93;2.57;;;17.40;99.90;;;;;;4998789;28;20206;-82
2022/08/01 04:16:19;;;;;;;5.03;2.60;;;17.40;99.90;;;;;;4996761;28;20203;-81
2022/08/01 04:18:45;;;;;;;3.83;2.40;;;17.40;99.90;;;;;;4996771;28;20195;-82
2022/08/01 04:21:11;;;;;;;3.93;2.60;;;17.40;99.90;;;;;;4995229;28;20673;-82
2022/08/01 04:23:40;;;;;;;3.40;2.37;;;17.40;99.90;;;;;;4998117;28;20175;-81
2022/08/01 04:26:07;;;;;;;6.67;2.87;;;17.40;99.90;;;;;;4996321;28;20223;-82
2022/08/01 04:28:35;;;;;;;3.40;2.43;;;17.40;99.90;;;;;;4995998;28;20207;-82
2022/08/01 04:31:02;;;;;;;4.67;2.50;;;17.50;99.90;;;;;;4997982;28;20190;-82
2022/08/01 04:33:31;;;;;;;3.73;2.63;;;17.50;99.90;;;;;;4996681;28;20633;-82
2022/08/01 04:35:59;;;;;;;3.43;2.57;;;17.60;99.90;;;;;;4997624;28;20179;-81
2022/08/01 04:38:28;;;;;;;3.30;2.30;;;17.60;99.90;;;;;;4995597;28;20546;-81
2022/08/01 04:40:54;;;;;;;3.30;2.07;;;17.60;99.90;;;;;;4996509;28;20601;-82
2022/08/01 04:43:20;;;;;;;3.70;2.20;;;17.70;99.90;;;;;;4996409;28;20184;-82
2022/08/01 04:45:47;;;;;;;4.77;2.60;;;17.80;99.90;;;;;;4995992;28;20176;-82
2022/08/01 04:48:16;;;;;;;3.00;2.37;;;17.80;99.90;;;;;;4998972;28;20172;-82
2022/08/01 04:50:42;;;;;;;4.33;2.80;;;17.90;99.90;;;;;;4998382;28;20191;-81
2022/08/01 04:53:21;;;;;;;2.40;2.20;;;17.90;99.90;;;;;;5000241;28;20177;-81
2022/08/01 04:55:47;;;;;;;2.67;2.27;;;18.00;99.90;;;;;;4998544;28;20209;-81
2022/08/01 04:58:15;;;;;;;4.37;2.73;;;18.00;99.90;;;;;;4998508;28;20179;-81
2022/08/01 05:00:41;;;;;;;2.43;2.03;;;18.10;99.90;;;;;;4998654;28;20204;-82
2022/08/01 05:03:07;;;;;;;2.67;2.20;;;18.10;99.90;;;;;;4999176;28;20207;-81
2022/08/01 05:05:33;;;;;;;2.33;2.13;;;18.10;99.90;;;;;;5000788;28;20179;-82
2022/08/01 05:08:00;;;;;;;3.40;2.40;;;18.10;99.90;;;;;;5004723;28;20195;-81
2022/08/01 05:10:25;;;;;;;4.93;2.10;;;18.20;99.90;;;;;;5010829;28;20175;-81
2022/08/01 05:12:52;;;;;;;2.70;2.20;;;;;;;;;;5009840;28;20542;-81
2022/08/01 05:15:18;;;;;;;3.77;2.57;;;18.20;99.90;;;;;;4998424;28;20185;-82
2022/08/01 05:17:43;;;;;;;4.07;2.00;;;18.30;99.90;;;;;;4998763;28;20272;-81
2022/08/01 05:20:11;;;;;;;3.93;2.40;;;18.30;99.90;;;;;;4998314;28;20200;-81
2022/08/01 05:22:37;;;;;;;4.07;2.60;;;18.30;99.90;;;;;;4995756;28;20264;-81
2022/08/01 05:25:04;;;;;;;4.57;2.77;;;18.40;99.90;;;;;;4995266;28;20207;-81
2022/08/01 05:27:30;;;;;;;3.07;2.40;;;18.40;99.90;;;;;;4996983;28;20212;-81
2022/08/01 05:29:56;;;;;;;4.03;2.40;;;18.50;99.90;;;;;;4994925;28;20645;-81
2022/08/01 05:32:22;;;;;;;3.10;2.37;;;18.50;99.90;;;;;;4995992;28;20180;-81
2022/08/01 05:34:48;;;;;;;3.80;2.43;;;18.60;99.90;;;;;;4995705;28;20180;-81
2022/08/01 05:37:13;;;;;;;4.47;2.73;;;18.60;99.90;;;;;;4996300;28;20199;-81
2022/08/01 05:39:39;;;;;;;3.60;2.67;;;;;;;;;;4995674;28;20198;-81
2022/08/01 05:42:06;;;;;;;5.03;2.47;;;18.80;99.90;;;;;;4995720;28;20211;-81
2022/08/01 05:44:32;;;;;;;3.90;2.40;;;18.80;99.90;;;;;;4994193;28;20179;-81
2022/08/01 05:46:58;;;;;;;4.73;2.63;;;18.90;99.90;;;;;;4993911;28;20245;-81
2022/08/01 05:49:24;;;;;;;2.50;2.30;;;19.00;99.90;;;;;;4995750;28;20177;-81
2022/08/01 05:51:49;;;;;;;2.87;2.13;;;19.10;99.90;;;;;;4995033;28;20661;-81
2022/08/01 05:54:15;;;;;;;2.70;2.33;;;;;;;;;;4995183;28;20557;-81
2022/08/01 05:56:41;;;;;;;4.23;2.50;;;19.30;99.90;;;;;;4995686;28;20208;-82
2022/08/01 05:59:07;;;;;;;2.80;2.17;;;;;;;;;;4995682;28;20197;-81
2022/08/01 06:01:33;;;;;;;2.53;2.30;;;19.50;99.90;;;;;;4996608;28;20210;-81
2022/08/01 06:03:59;;;;;;;3.17;2.17;;;;;;;;;;4996357;28;20176;-81
2022/08/01 06:06:25;;;;;;;3.80;2.40;;;19.60;99.90;;;;;;4996364;28;20223;-81
2022/08/01 06:08:51;;;;;;;2.43;2.23;;;19.70;99.90;;;;;;4997653;28;20177;-81
2022/08/01 06:11:17;;;;;;;2.57;2.00;;;19.80;99.90;;;;;;4997494;28;20182;-81
2022/08/01 06:13:43;;;;;;;3.77;2.33;;;19.80;99.90;;;;;;4998534;28;20193;-82
2022/08/01 06:16:08;;;;;;;3.10;2.23;;;20.00;99.90;;;;;;4997067;28;20267;-80
2022/08/01 06:18:34;;;;;;;2.87;2.60;;;20.00;99.90;;;;;;4995683;28;20181;-80
2022/08/01 06:21:00;;;;;;;2.63;2.17;;;20.10;99.90;;;;;;4995613;28;20232;-81
2022/08/01 06:23:25;;;;;;;2.60;2.40;;;20.10;99.90;;;;;;4997054;28;20566;-81
2022/08/01 06:25:54;;;;;;;3.50;2.10;;;20.30;99.90;;;;;;4998249;28;20180;-81
2022/08/01 06:28:21;;;;;;;6.93;2.50;;;20.30;99.90;;;;;;4999028;28;20176;-81
2022/08/01 06:30:47;;;;;;;5.37;2.70;;;20.40;99.90;;;;;;4998151;28;20207;-81
2022/08/01 06:33:13;;;;;;;2.53;2.30;;;20.50;99.90;;;;;;5000004;28;20651;-80
2022/08/01 06:35:39;;;;;;;2.80;2.50;;;;;;;;;;4999891;28;20191;-81
2022/08/01 06:38:04;;;;;;;3.53;2.73;;;20.60;99.90;;;;;;4999800;28;20545;-81
2022/08/01 06:40:30;;;;;;;3.03;2.20;;;20.60;99.90;;;;;;4998520;28;20219;-81
2022/08/01 06:42:56;;;;;;;3.13;2.20;;;20.60;99.90;;;;;;5003768;28;20180;-80
2022/08/01 06:45:26;;;;;;;2.47;2.23;;;20.70;99.90;;;;;;5008151;28;20183;-80
2022/08/01 06:47:52;;;;;;;2.63;2.33;;;20.80;99.90;;;;;;5000923;28;20203;-80
2022/08/01 06:50:18;;;;;;;3.17;2.37;;;20.80;99.90;;;;;;4999736;28;20180;-80
2022/08/01 06:52:44;;;;;;;3.30;2.00;;;20.90;99.90;;;;;;5000879;28;20183;-80
2022/08/01 06:55:10;;;;;;;2.30;2.10;;;20.90;99.90;;;;;;4999509;28;20183;-80
2022/08/01 06:57:36;;;;;;;2.57;2.10;;;21.00;99.90;;;;;;4998076;28;20203;-79
2022/08/01 07:00:08;;;;;;;2.30;2.10;;;21.10;99.90;;;;;;5000186;28;20739;-80
2022/08/01 07:02:36;;;;;;;6.33;2.77;;;21.10;99.90;;;;;;4999203;28;20168;-80
2022/08/01 07:05:03;;;;;;;2.70;2.03;;;21.10;99.90;;;;;;4998043;28;20184;-80
2022/08/01 07:07:29;;;;;;;2.47;2.27;;;;;;;;;;5000198;28;20255;-80
2022/08/01 07:09:55;;;;;;;3.17;2.00;;;21.20;99.90;;;;;;4999758;28;20191;-79
2022/08/01 07:12:21;;;;;;;4.57;1.90;;;21.20;99.90;;;;;;5000400;28;20218;-80
2022/08/01 07:14:47;;;;;;;3.63;2.03;;;21.30;99.90;;;;;;4997762;28;20233;-80
2022/08/01 07:17:12;;;;;;;4.00;2.40;;;21.30;99.90;;;;;;4997683;28;20213;-80
2022/08/01 07:19:38;;;;;;;3.97;2.00;;;21.40;99.90;;;;;;4999199;28;20180;-80
2022/08/01 07:22:04;;;;;;;3.17;2.30;;;21.40;99.90;;;;;;4999056;28;20171;-80
2022/08/01 07:24:30;;;;;;;2.70;2.40;;;21.50;99.90;;;;;;4997930;28;20270;-79
2022/08/01 07:26:57;;;;;;;2.60;2.30;;;21.50;99.90;;;;;;4997867;28;20672;-79
2022/08/01 07:29:26;;;;;;;2.40;2.20;;;21.60;99.90;;;;;;4999266;28;20174;-80
2022/08/01 07:31:53;;;;;;;4.50;2.20;;;21.70;99.90;;;;;;4999191;28;20195;-80
2022/08/01 07:34:19;;;;;;;3.47;2.43;;;21.80;99.90;;;;;;4999249;28;20183;-79
2022/08/01 07:36:44;;;;;;;2.50;2.30;;;21.90;99.90;;;;;;4997630;28;20202;-79
2022/08/01 07:39:10;;;;;;;4.17;2.17;;;21.90;99.90;;;;;;4999188;28;20188;-80
2022/08/01 07:41:36;;;;;;;2.30;2.10;;;21.90;99.90;;;;;;4997739;28;20294;-80
2022/08/01 07:44:02;;;;;;;3.57;2.80;;;21.90;99.90;;;;;;4999578;28;20623;-80
2022/08/01 07:46:30;;;;;;;2.73;2.43;;;22.00;99.90;;;;;;4998096;28;20269;-80
2022/08/01 07:48:55;;;;;;;2.63;2.30;;;22.00;99.90;;;;;;4999175;28;20710;-80
2022/08/01 07:51:21;;;;;;;4.30;2.40;;;22.20;99.90;;;;;;4999492;28;20260;-79
2022/08/01 07:53:47;;;;;;;2.50;2.30;;;22.30;99.90;;;;;;4999239;28;20202;-79
2022/08/01 07:56:12;;;;;;;3.00;2.47;;;22.30;99.90;;;;;;4999923;28;20214;-79
2022/08/01 07:58:38;;;;;;;2.30;2.10;;;22.40;99.90;;;;;;4999386;28;20679;-79
2022/08/01 08:01:04;;;;;;;3.30;1.80;;;22.40;99.90;;;;;;4999455;28;20578;-79
2022/08/01 08:03:29;;;;;;;5.10;2.30;;;22.50;99.90;;;;;;4998092;28;20177;-79
2022/08/01 08:05:56;;;;;;;3.40;2.30;;;22.70;99.90;;;;;;4998808;28;20175;-79
2022/08/01 08:08:22;;;;;;;2.83;2.63;;;22.70;99.90;;;;;;4997365;28;20169;-79
2022/08/01 08:10:47;;;;;;;3.50;2.33;;;22.80;99.90;;;;;;4996573;28;20187;-79
2022/08/01 08:13:13;;;;;;;2.63;2.43;;;22.90;99.90;;;;;;4999178;28;20264;-79
2022/08/01 08:15:39;;;;;;;2.87;2.27;;;23.00;99.90;;;;;;5002258;28;20187;-79
2022/08/01 08:18:05;;;;;;;4.77;2.23;;;23.20;99.90;;;;;;5003842;28;20176;-79
2022/08/01 08:20:31;;;;;;;2.60;2.40;;;23.20;99.90;;;;;;5003933;28;20277;-79
2022/08/01 08:22:59;;;;;;;2.60;2.40;;;23.20;99.90;;;;;;4997580;28;20633;-79
2022/08/01 08:25:26;;;;;;;3.30;2.30;;;23.30;99.90;;;;;;4995045;28;20180;-79
2022/08/01 08:27:52;;;;;;;4.50;2.40;;;23.40;99.90;;;;;;4994494;28;20199;-79
2022/08/01 08:30:18;;;;;;;5.37;2.50;;;23.60;99.90;;;;;;4995631;28;20185;-79
2022/08/01 08:32:44;;;;;;;3.03;2.80;;;23.80;99.90;;;;;;4995535;28;20192;-79
2022/08/01 08:35:10;;;;;;;3.10;2.10;;;23.80;99.90;;;;;;4995962;28;20186;-79
2022/08/01 08:37:37;;;;;;;5.70;2.30;;;23.90;99.90;;;;;;4995726;28;20232;-79
2022/08/01 08:40:04;;;;;;;2.53;2.20;;;24.00;99.90;;;;;;4995993;28;20677;-79
2022/08/01 08:42:30;;;;;;;2.97;2.40;;;24.00;99.90;;;;;;4994264;28;20187;-79
2022/08/01 08:44:56;;;;;;;2.40;2.20;;;24.10;99.90;;;;;;4994935;28;20189;-79
2022/08/01 08:47:23;;;;;;;2.70;2.20;;;24.10;99.90;;;;;;4995147;28;20198;-79
2022/08/01 08:49:52;;;;;;;3.93;2.27;;;24.20;99.90;;;;;;4995621;28;20249;-79
2022/08/01 08:52:20;;;;;;;2.40;2.20;;;24.40;99.90;;;;;;4994507;28;20194;-80
2022/08/01 08:54:48;;;;;;;2.50;2.23;;;24.40;99.90;;;;;;4996139;28;20244;-79
2022/08/01 08:57:15;;;;;;;4.33;2.10;;;24.50;99.90;;;;;;4994510;28;20224;-79
2022/08/01 08:59:43;;;;;;;3.23;2.27;;;24.60;99.90;;;;;;4995913;28;20182;-79
2022/08/01 09:02:09;;;;;;;2.30;2.10;;;24.60;99.90;;;;;;4995666;28;20186;-79
2022/08/01 09:04:36;;;;;;;3.00;2.37;;;24.80;99.90;;;;;;4995417;28;20571;-79
2022/08/01 09:07:04;;;;;;;3.77;2.23;;;24.80;99.90;;;;;;4992897;28;20617;-79
2022/08/01 09:09:30;;;;;;;2.40;1.70;;;24.80;99.90;;;;;;4993956;28;20179;-79
2022/08/01 09:11:56;;;;;;;2.20;2.00;;;24.90;99.90;;;;;;4994033;28;20195;-79
2022/08/01 09:14:23;;;;;;;2.50;1.70;;;25.10;99.90;;;;;;4993957;28;20184;-79
2022/08/01 09:17:06;;;;;;;2.57;1.80;;;25.30;99.90;;;;;;4995122;28;20200;-79
2022/08/01 09:19:39;;;;;;;2.70;2.00;;;25.40;99.90;;;;;;4994090;28;20172;-79
2022/08/01 09:22:08;;;;;;;2.07;1.83;;;25.50;99.90;;;;;;4995210;28;20217;-79
2022/08/01 09:24:34;;;;;;;2.87;2.20;;;25.60;99.90;;;;;;4994959;28;20192;-79
2022/08/01 09:27:01;;;;;;;5.23;1.63;;;25.70;99.90;;;;;;4995076;28;20675;-80
2022/08/01 09:29:29;;;;;;;2.87;1.67;;;25.80;99.90;;;;;;4996015;28;20510;-83
2022/08/01 09:31:56;;;;;;;4.17;2.00;;;26.00;99.90;;;;;;4996214;28;20183;-81
2022/08/01 09:34:39;;;;;;;2.37;1.77;;;26.20;99.90;;;;;;4996180;28;20186;-80
2022/08/01 09:37:06;;;;;;;4.50;1.70;;;26.30;99.90;;;;;;4997025;28;20202;-80
2022/08/01 09:39:37;;;;;;;2.10;1.87;;;26.50;99.90;;;;;;4996379;28;20189;-80
2022/08/01 09:42:26;;;;;;;2.10;1.60;;;26.70;99.90;;;;;;4996522;28;20204;-80
2022/08/01 09:44:52;;;;;;;2.37;1.90;;;26.80;99.90;;;;;;4994974;28;20207;-80
2022/08/01 09:47:20;;;;;;;4.97;1.77;;;26.70;99.90;;;;;;4995424;28;20192;-80
2022/08/01 09:49:57;;;;;;;2.87;1.90;;;26.70;99.90;;;;;;4995218;28;20189;-80
2022/08/01 09:52:25;;;;;;;2.77;1.70;;;26.90;99.90;;;;;;4995643;28;20167;-80
2022/08/01 09:55:00;;;;;;;3.27;1.97;;;26.90;99.90;;;;;;4993939;28;20183;-80
2022/08/01 09:57:27;;;;;;;1.90;1.30;;;27.20;99.90;;;;;;4993685;28;20214;-79
2022/08/01 09:59:56;;;;;;;1.87;1.50;;;27.10;99.90;;;;;;4994263;28;20175;-80
2022/08/01 10:02:27;;;;;;;2.23;1.50;;;27.10;99.90;;;;;;4994212;28;20182;-80
2022/08/01 10:04:54;;;;;;;1.90;1.73;;;27.20;99.30;;;;;;4993939;28;20672;-80
2022/08/01 10:07:21;;;;;;;2.07;1.73;;;27.10;98.10;;;;;;4993800;28;20188;-80
2022/08/01 10:09:47;;;;;;;3.83;1.77;;;26.70;99.90;;;;;;4992898;28;20176;-80
2022/08/01 10:12:19;;;;;;;4.40;1.50;;;26.70;98.70;;;;;;4994237;28;20168;-80
2022/08/01 10:14:49;;;;;;;1.93;1.60;;;26.80;99.90;;;;;;4992622;28;20194;-80
2022/08/01 10:17:17;;;;;;;2.50;1.67;;;27.10;99.90;;;;;;4994449;28;20196;-80
2022/08/01 10:19:43;;;;;;;2.60;1.57;;;27.50;98.50;;;;;;4996178;28;20183;-80
2022/08/01 10:22:17;;;;;;;3.03;1.43;;;27.80;98.30;;;;;;4997698;28;20204;-80
2022/08/01 10:24:47;;;;;;;2.80;1.67;;;27.90;97.30;;;;;;4997340;28;20231;-79
2022/08/01 10:27:15;;;;;;;2.80;1.60;;;27.80;98.80;;;;;;4996425;28;20665;-80
2022/08/01 10:29:53;;;;;;;2.10;1.50;;;27.70;98.50;;;;;;4997682;28;20342;-80
2022/08/01 10:32:19;;;;;;;1.80;1.60;;;27.60;96.60;;;;;;4997946;28;20189;-80
2022/08/01 10:34:45;;;;;;;1.70;1.60;;;27.70;97.10;;;;;;4997962;28;20170;-80
2022/08/01 10:37:13;;;;;;;5.07;1.77;;;27.80;99.90;;;;;;4996352;28;20598;-80
2022/08/01 10:39:40;;;;;;;2.43;1.40;;;28.00;97.30;;;;;;4996940;28;20200;-80
2022/08/01 10:42:09;;;;;;;5.07;1.53;;;27.90;97.20;;;;;;4999429;28;20675;-80
2022/08/01 10:44:36;;;;;;;2.30;1.60;;;28.00;97.00;;;;;;4999750;28;20180;-80
2022/08/01 10:47:11;;;;;;;2.00;1.70;;;28.10;97.10;;;;;;4999032;28;20239;-80
2022/08/01 10:50:06;;;;;;;1.50;1.30;;;28.10;96.20;;;;;;4997259;28;20220;-80
2022/08/01 10:52:32;;;;;;;2.03;1.60;;;28.30;96.00;;;;;;5003703;28;20206;-80
2022/08/01 10:55:10;;;;;;;1.67;1.43;;;28.60;96.70;;;;;;5000075;28;20182;-80
2022/08/01 10:57:46;;;;;;;1.53;1.20;;;28.80;95.40;;;;;;4998887;28;20198;-80
2022/08/01 11:00:20;;;;;;;3.60;1.60;;;28.50;95.30;;;;;;4998658;28;20213;-81
2022/08/01 11:03:01;;;;;;;2.27;1.70;;;28.20;95.80;;;;;;4997433;28;20186;-80
2022/08/01 11:05:31;;;;;;;2.80;1.47;;;28.30;95.10;;;;;;4999306;28;20175;-80
2022/08/01 11:08:01;;;;;;;2.23;1.97;;;28.70;94.00;;;;;;4999430;28;20927;-81
2022/08/01 11:10:44;;;;;;;4.03;1.60;;;28.90;97.00;;;;;;4999401;28;20182;-81
2022/08/01 11:13:11;;;;;;;2.33;1.63;;;29.20;93.80;;;;;;4999399;28;20228;-80
2022/08/01 11:15:38;;;;;;;2.70;1.50;;;29.50;94.30;;;;;;4998863;28;20197;-81
2022/08/01 11:18:26;;;;;;;1.83;1.33;;;29.50;93.80;;;;;;4998895;28;20213;-81
2022/08/01 11:20:58;;;;;;;1.60;1.40;;;29.70;93.20;;;;;;4998508;28;20557;-81
2022/08/01 11:23:25;;;;;;;3.00;1.30;;;29.50;91.10;;;;;;4998388;28;20215;-81
2022/08/01 11:25:52;;;;;;;1.30;1.00;;;29.50;92.90;;;;;;5003955;28;20186;-81
2022/08/01 11:28:19;;;;;;;1.70;1.13;;;29.50;92.50;;;;;;5002145;28;20176;-81
2022/08/01 11:30:51;;;;;;;1.90;1.20;;;29.90;93.90;;;;;;4997457;28;20180;-81
2022/08/01 11:33:38;;;;;;;1.63;1.17;;;30.10;92.70;;;;;;4997895;28;20215;-81
2022/08/01 11:36:12;;;;;;;1.50;1.13;;;30.20;94.20;;;;;;4997073;28;20271;-81
2022/08/01 11:38:41;;;;;;;5.37;1.37;;;30.40;90.30;;;;;;4996466;28;20184;-81
2022/08/01 11:41:24;;;;;;;2.43;1.30;;;30.60;92.20;;;;;;4997810;28;20228;-81
2022/08/01 11:43:59;;;;;;;1.40;1.30;;;30.80;90.00;;;;;;4996770;28;20192;-81
2022/08/01 11:47:03;;;;;;;2.77;1.30;;;31.20;92.40;;;;;;4996447;28;20245;-81
2022/08/01 11:49:47;;;;;;;3.80;1.30;;;31.00;89.40;;;;;;4996801;28;20180;-81
2022/08/01 11:52:26;;;;;;;1.20;1.10;;;31.00;90.00;;;;;;4999677;28;20275;-81
2022/08/01 11:54:54;;;;;;;2.30;1.13;;;31.00;85.70;;;;;;4997470;28;20173;-81
2022/08/01 11:57:22;;;;;;;1.20;1.10;;;31.20;89.60;;;;;;4996621;28;20207;-81
2022/08/01 11:59:54;;;;;;;5.17;1.30;;;31.40;85.40;;;;;;4999107;28;20271;-81
2022/08/01 12:02:25;;;;;;;1.90;1.30;;;31.20;80.40;;;;;;4997209;28;20280;-82
2022/08/01 12:05:07;;;;;;;3.93;1.30;;;31.20;78.90;;;;;;4996259;28;20611;-82
2022/08/01 12:07:34;;;;;;;1.50;1.20;;;31.20;81.10;;;;;;4995307;28;20202;-81
2022/08/01 12:10:03;;;;;;;1.30;1.20;;;31.40;83.80;;;;;;4995733;28;20214;-82
2022/08/01 12:12:30;;;;;;;2.73;1.50;;;31.50;87.40;;;;;;4997557;28;20699;-82
2022/08/01 12:15:00;;;;;;;1.50;1.10;;;31.70;86.40;;;;;;4998125;28;20214;-82
2022/08/01 12:17:35;;;;;;;1.73;1.40;;;31.40;85.80;;;;;;4997257;28;20204;-82
2022/08/01 12:20:04;;;;;;;3.40;1.47;;;30.20;79.30;;;;;;4997493;28;20190;-81
2022/08/01 12:22:30;;;;;;;2.10;1.30;;;29.50;84.20;;;;;;4997782;28;20196;-82
2022/08/01 12:25:04;;;;;;;2.00;1.20;;;29.60;81.00;;;;;;4996751;28;20238;-82
2022/08/01 12:27:30;;;;;;;1.20;1.10;;;29.10;81.80;;;;;;4996255;28;20288;-81
2022/08/01 12:29:58;;;;;;;1.20;1.10;;;29.50;90.70;;;;;;4995339;28;20188;-81
2022/08/01 12:32:29;;;;;;;2.00;1.30;;;30.30;91.30;;;;;;4995949;28;20181;-81
2022/08/01 12:34:55;;;;;;;1.90;1.20;;;30.90;88.40;;;;;;4998177;28;20579;-82
2022/08/01 12:37:22;;;;;;;1.43;1.27;;;31.40;87.00;;;;;;4995989;28;20326;-82
2022/08/01 12:39:47;;;;;;;2.20;1.20;;;31.80;83.30;;;;;;4997377;28;20277;-82
2022/08/01 12:42:14;;;;;;;3.60;1.30;;;31.50;79.60;;;;;;4993586;28;20306;-82
2022/08/01 12:44:44;;;;;;;1.63;1.30;;;31.00;80.20;;;;;;4996076;28;20181;-82
2022/08/01 12:47:11;;;;;;;1.50;1.33;;;30.70;78.70;;;;;;4996220;28;20201;-81
2022/08/01 12:49:38;;;;;;;1.53;1.43;;;31.00;86.70;;;;;;4995986;28;20648;-81
2022/08/01 12:52:04;;;;;;;1.23;1.13;;;31.20;83.90;;;;;;4993974;28;20209;-82
2022/08/01 12:54:30;;;;;;;1.10;0.97;;;31.50;82.90;;;;;;4997444;28;20187;-82
2022/08/01 12:56:56;;;;;;;2.60;1.27;;;31.40;77.20;;;;;;4995998;28;20706;-81
2022/08/01 12:59:27;;;;;;;1.60;1.10;;;31.50;75.60;;;;;;4998458;28;20180;-82